createdAt,value
2019-03-28T00:00:19.512Z,0
2019-03-28T00:00:45.671Z,0
2019-03-28T00:01:11.864Z,0
2019-03-28T00:01:38.030Z,0
2019-03-28T00:02:04.191Z,0
2019-03-28T00:02:30.354Z,0
2019-03-28T00:02:56.504Z,0
2019-03-28T00:03:23.047Z,0
2019-03-28T00:03:49.209Z,0
2019-03-28T00:04:15.370Z,0
2019-03-28T00:04:42.179Z,0
2019-03-28T00:05:07.938Z,0
2019-03-28T00:05:34.224Z,0
2019-03-28T00:06:00.422Z,0
2019-03-28T00:06:26.597Z,0
2019-03-28T00:06:53.257Z,0
2019-03-28T00:07:19.412Z,0
2019-03-28T00:07:45.571Z,0
2019-03-28T00:08:12.582Z,0
2019-03-28T00:08:38.930Z,0
2019-03-28T00:09:07.586Z,0
2019-03-28T00:09:31.320Z,0
2019-03-28T00:09:57.475Z,0
2019-03-28T00:10:23.902Z,0
2019-03-28T00:10:50.862Z,0
2019-03-28T00:11:17.020Z,0
2019-03-28T00:11:43.180Z,0
2019-03-28T00:12:10.080Z,0
2019-03-28T00:12:36.241Z,0
2019-03-28T00:13:02.401Z,0
2019-03-28T00:13:28.563Z,0
2019-03-28T00:13:55.158Z,0
2019-03-28T00:14:20.924Z,0
2019-03-28T00:14:47.120Z,0
2019-03-28T00:15:13.354Z,0
2019-03-28T00:15:39.510Z,0
2019-03-28T00:16:05.668Z,0
2019-03-28T00:16:31.835Z,0
2019-03-28T00:16:58.668Z,0
2019-03-28T00:17:24.866Z,0
2019-03-28T00:17:51.031Z,0
2019-03-28T00:18:18.036Z,0
2019-03-28T00:18:44.196Z,0
2019-03-28T00:19:11.345Z,0
2019-03-28T00:19:37.507Z,0
2019-03-28T00:20:03.658Z,0
2019-03-28T00:20:30.809Z,0
2019-03-28T00:20:57.004Z,0
2019-03-28T00:21:23.200Z,0
2019-03-28T00:21:49.354Z,0
2019-03-28T00:22:17.260Z,0
2019-03-28T00:22:43.411Z,0
2019-03-28T00:23:09.571Z,0
2019-03-28T00:23:35.765Z,0
2019-03-28T00:24:02.450Z,0
2019-03-28T00:24:28.649Z,0
2019-03-28T00:24:54.804Z,0
2019-03-28T00:25:20.958Z,0
2019-03-28T00:25:47.113Z,0
2019-03-28T00:26:13.707Z,0
2019-03-28T00:26:42.486Z,0
2019-03-28T00:27:08.655Z,0
2019-03-28T00:27:34.848Z,0
2019-03-28T00:28:01.007Z,0
2019-03-28T00:28:27.202Z,0
2019-03-28T00:28:53.358Z,0
2019-03-28T00:29:19.604Z,0
2019-03-28T00:29:45.757Z,0
2019-03-28T00:30:11.952Z,0
2019-03-28T00:30:38.136Z,0
2019-03-28T00:31:04.300Z,0
2019-03-28T00:31:30.585Z,0
2019-03-28T00:31:57.735Z,0
2019-03-28T00:32:23.934Z,0
2019-03-28T00:32:50.096Z,0
2019-03-28T00:33:16.261Z,0
2019-03-28T00:33:42.417Z,0
2019-03-28T00:34:08.695Z,0
2019-03-28T00:34:35.217Z,0
2019-03-28T00:35:01.356Z,0
2019-03-28T00:35:27.513Z,0
2019-03-28T00:35:53.671Z,0
2019-03-28T00:36:19.870Z,0
2019-03-28T00:36:46.028Z,0
2019-03-28T00:37:12.216Z,0
2019-03-28T00:37:38.373Z,0
2019-03-28T00:38:05.323Z,0
2019-03-28T00:38:31.478Z,0
2019-03-28T00:38:57.635Z,0
2019-03-28T00:39:23.834Z,0
2019-03-28T00:39:50.645Z,0
2019-03-28T00:40:16.839Z,0
2019-03-28T00:40:43.002Z,0
2019-03-28T00:41:09.157Z,0
2019-03-28T00:41:35.863Z,0
2019-03-28T00:42:02.017Z,0
2019-03-28T00:42:28.181Z,0
2019-03-28T00:42:54.337Z,0
2019-03-28T00:43:21.243Z,0
2019-03-28T00:43:47.401Z,0
2019-03-28T00:44:13.552Z,0
2019-03-28T00:44:39.711Z,0
2019-03-28T00:45:06.242Z,0
2019-03-28T00:45:32.414Z,0
2019-03-28T00:45:59.562Z,0
2019-03-28T00:46:26.422Z,0
2019-03-28T00:46:52.602Z,0
2019-03-28T00:47:18.829Z,0
2019-03-28T00:47:44.991Z,0
2019-03-28T00:48:11.743Z,0
2019-03-28T00:48:37.901Z,0
2019-03-28T00:49:04.059Z,0
2019-03-28T00:49:30.216Z,0
2019-03-28T00:49:56.384Z,0
2019-03-28T00:50:22.582Z,0
2019-03-28T00:50:48.975Z,0
2019-03-28T00:51:15.904Z,0
2019-03-28T00:51:43.233Z,0
2019-03-28T00:52:09.257Z,0
2019-03-28T00:52:35.425Z,0
2019-03-28T00:53:02.085Z,0
2019-03-28T00:53:28.238Z,0
2019-03-28T00:53:54.396Z,0
2019-03-28T00:54:21.075Z,0
2019-03-28T00:54:47.266Z,0
2019-03-28T00:55:13.459Z,0
2019-03-28T00:55:39.612Z,0
2019-03-28T00:56:05.776Z,0
2019-03-28T00:56:43.629Z,0
2019-03-28T00:57:00.818Z,0
2019-03-28T00:57:27.011Z,0
2019-03-28T00:57:53.207Z,0
2019-03-28T00:58:19.547Z,0
2019-03-28T00:58:45.713Z,0
2019-03-28T00:59:11.910Z,0
2019-03-28T00:59:38.070Z,0
2019-03-28T01:00:04.295Z,0
2019-03-28T01:00:30.453Z,0
2019-03-28T01:00:56.618Z,0
2019-03-28T01:01:22.776Z,0
2019-03-28T01:01:48.972Z,0
2019-03-28T01:02:15.126Z,0
2019-03-28T01:02:42.095Z,0
2019-03-28T01:03:08.259Z,0
2019-03-28T01:03:34.421Z,0
2019-03-28T01:04:00.575Z,0
2019-03-28T01:04:27.255Z,0
2019-03-28T01:04:53.413Z,0
2019-03-28T01:05:19.570Z,0
2019-03-28T01:05:45.728Z,0
2019-03-28T01:06:11.927Z,0
2019-03-28T01:06:38.129Z,0
2019-03-28T01:07:04.284Z,0
2019-03-28T01:07:30.450Z,0
2019-03-28T01:07:56.609Z,0
2019-03-28T01:08:22.781Z,0
2019-03-28T01:08:48.937Z,0
2019-03-28T01:09:15.985Z,0
2019-03-28T01:09:42.148Z,0
2019-03-28T01:10:08.309Z,0
2019-03-28T01:10:34.471Z,0
2019-03-28T01:11:00.629Z,0
2019-03-28T01:11:26.797Z,0
2019-03-28T01:11:52.954Z,0
2019-03-28T01:12:19.158Z,0
2019-03-28T01:12:45.317Z,0
2019-03-28T01:13:11.522Z,0
2019-03-28T01:13:37.681Z,0
2019-03-28T01:14:04.314Z,0
2019-03-28T01:14:30.473Z,0
2019-03-28T01:14:56.623Z,0
2019-03-28T01:15:23.313Z,0
2019-03-28T01:15:49.537Z,0
2019-03-28T01:16:15.661Z,0
2019-03-28T01:16:41.820Z,0
2019-03-28T01:17:07.975Z,0
2019-03-28T01:17:34.136Z,0
2019-03-28T01:18:00.337Z,0
2019-03-28T01:18:26.498Z,0
2019-03-28T01:18:52.655Z,0
2019-03-28T01:19:18.858Z,0
2019-03-28T01:19:45.638Z,0
2019-03-28T01:20:11.839Z,0
2019-03-28T01:20:38.029Z,0
2019-03-28T01:21:04.189Z,0
2019-03-28T01:21:30.381Z,0
2019-03-28T01:21:56.948Z,0
2019-03-28T01:22:23.137Z,0
2019-03-28T01:22:49.295Z,0
2019-03-28T01:23:15.462Z,0
2019-03-28T01:23:42.028Z,0
2019-03-28T01:24:08.182Z,0
2019-03-28T01:24:34.341Z,0
2019-03-28T01:25:01.872Z,0
2019-03-28T01:25:27.741Z,0
2019-03-28T01:25:53.903Z,0
2019-03-28T01:26:20.063Z,0
2019-03-28T01:26:56.518Z,0
2019-03-28T01:27:14.392Z,0
2019-03-28T01:27:40.909Z,0
2019-03-28T01:28:07.091Z,0
2019-03-28T01:28:33.250Z,0
2019-03-28T01:28:59.406Z,0
2019-03-28T01:29:25.568Z,0
2019-03-28T01:29:51.728Z,0
2019-03-28T01:30:18.186Z,0
2019-03-28T01:30:44.339Z,0
2019-03-28T01:31:10.497Z,0
2019-03-28T01:31:36.692Z,0
2019-03-28T01:32:02.898Z,0
2019-03-28T01:32:29.052Z,0
2019-03-28T01:32:55.254Z,0
2019-03-28T01:33:21.410Z,0
2019-03-28T01:33:48.385Z,0
2019-03-28T01:34:14.586Z,0
2019-03-28T01:34:40.737Z,0
2019-03-28T01:35:06.904Z,0
2019-03-28T01:35:33.669Z,0
2019-03-28T01:35:59.827Z,0
2019-03-28T01:36:25.979Z,0
2019-03-28T01:36:52.144Z,0
2019-03-28T01:37:18.291Z,0
2019-03-28T01:37:45.056Z,0
2019-03-28T01:38:11.254Z,0
2019-03-28T01:38:37.490Z,0
2019-03-28T01:39:03.688Z,0
2019-03-28T01:39:29.847Z,0
2019-03-28T01:39:56.297Z,0
2019-03-28T01:40:22.473Z,0
2019-03-28T01:40:48.700Z,0
2019-03-28T01:41:14.848Z,0
2019-03-28T01:41:41.173Z,0
2019-03-28T01:42:07.308Z,0
2019-03-28T01:42:33.463Z,0
2019-03-28T01:42:59.626Z,0
2019-03-28T01:43:25.782Z,0
2019-03-28T01:43:52.309Z,0
2019-03-28T01:44:18.468Z,0
2019-03-28T01:44:44.621Z,0
2019-03-28T01:45:10.819Z,0
2019-03-28T01:45:36.999Z,0
2019-03-28T01:46:03.156Z,0
2019-03-28T01:46:29.352Z,0
2019-03-28T01:46:55.654Z,0
2019-03-28T01:47:21.810Z,0
2019-03-28T01:47:48.427Z,0
2019-03-28T01:48:14.585Z,0
2019-03-28T01:48:40.744Z,0
2019-03-28T01:49:07.891Z,0
2019-03-28T01:49:34.098Z,0
2019-03-28T01:50:00.753Z,0
2019-03-28T01:50:26.920Z,0
2019-03-28T01:50:53.116Z,0
2019-03-28T01:51:19.276Z,0
2019-03-28T01:51:45.431Z,0
2019-03-28T01:52:12.922Z,0
2019-03-28T01:52:39.110Z,0
2019-03-28T01:53:05.273Z,0
2019-03-28T01:53:31.429Z,0
2019-03-28T01:53:57.583Z,0
2019-03-28T01:54:24.301Z,0
2019-03-28T01:54:50.456Z,0
2019-03-28T01:55:16.622Z,0
2019-03-28T01:55:42.782Z,0
2019-03-28T01:56:08.949Z,0
2019-03-28T01:56:36.308Z,0
2019-03-28T01:57:10.618Z,0
2019-03-28T01:57:31.620Z,0
2019-03-28T01:57:58.479Z,0
2019-03-28T01:58:24.637Z,0
2019-03-28T01:58:51.146Z,0
2019-03-28T01:59:17.348Z,0
2019-03-28T01:59:43.508Z,0
2019-03-28T02:00:09.668Z,0
2019-03-28T02:00:35.911Z,0
2019-03-28T02:01:02.923Z,0
2019-03-28T02:01:29.146Z,0
2019-03-28T02:01:55.354Z,0
2019-03-28T02:02:21.525Z,0
2019-03-28T02:02:47.676Z,0
2019-03-28T02:03:13.831Z,0
2019-03-28T02:03:39.992Z,0
2019-03-28T02:04:06.152Z,0
2019-03-28T02:04:32.389Z,0
2019-03-28T02:04:58.545Z,0
2019-03-28T02:05:24.710Z,0
2019-03-28T02:05:50.878Z,0
2019-03-28T02:06:17.040Z,0
2019-03-28T02:06:43.236Z,0
2019-03-28T02:07:09.430Z,0
2019-03-28T02:07:35.695Z,0
2019-03-28T02:08:02.792Z,0
2019-03-28T02:08:29.034Z,0
2019-03-28T02:08:55.199Z,0
2019-03-28T02:09:21.928Z,0
2019-03-28T02:09:48.181Z,0
2019-03-28T02:10:14.388Z,0
2019-03-28T02:10:40.541Z,0
2019-03-28T02:11:06.746Z,0
2019-03-28T02:11:32.900Z,0
2019-03-28T02:11:59.063Z,0
2019-03-28T02:12:25.763Z,0
2019-03-28T02:12:52.064Z,0
2019-03-28T02:13:18.224Z,0
2019-03-28T02:13:44.387Z,0
2019-03-28T02:14:10.541Z,0
2019-03-28T02:14:36.701Z,0
2019-03-28T02:15:02.859Z,0
2019-03-28T02:15:29.015Z,0
2019-03-28T02:15:55.387Z,0
2019-03-28T02:16:21.626Z,0
2019-03-28T02:16:47.776Z,0
2019-03-28T02:17:13.966Z,0
2019-03-28T02:17:40.128Z,0
2019-03-28T02:18:06.284Z,0
2019-03-28T02:18:32.445Z,0
2019-03-28T02:18:59.351Z,0
2019-03-28T02:19:25.508Z,0
2019-03-28T02:19:51.662Z,0
2019-03-28T02:20:17.825Z,0
2019-03-28T02:20:43.979Z,0
2019-03-28T02:21:10.141Z,0
2019-03-28T02:21:36.308Z,0
2019-03-28T02:22:02.465Z,0
2019-03-28T02:22:28.660Z,0
2019-03-28T02:22:55.603Z,0
2019-03-28T02:23:21.838Z,0
2019-03-28T02:23:48.002Z,0
2019-03-28T02:24:14.160Z,0
2019-03-28T02:24:40.321Z,0
2019-03-28T02:25:06.561Z,0
2019-03-28T02:25:32.979Z,0
2019-03-28T02:25:59.171Z,0
2019-03-28T02:26:25.330Z,0
2019-03-28T02:26:51.491Z,0
2019-03-28T02:27:23.664Z,0
2019-03-28T02:27:46.777Z,0
2019-03-28T02:28:12.976Z,0
2019-03-28T02:28:39.127Z,0
2019-03-28T02:29:05.294Z,0
2019-03-28T02:29:31.452Z,0
2019-03-28T02:29:58.289Z,0
2019-03-28T02:30:24.902Z,0
2019-03-28T02:30:51.261Z,0
2019-03-28T02:31:17.539Z,0
2019-03-28T02:31:43.740Z,0
2019-03-28T02:32:09.895Z,0
2019-03-28T02:32:36.091Z,0
2019-03-28T02:33:02.290Z,0
2019-03-28T02:33:28.460Z,0
2019-03-28T02:33:54.648Z,0
2019-03-28T02:34:20.807Z,0
2019-03-28T02:34:48.912Z,0
2019-03-28T02:35:14.238Z,0
2019-03-28T02:35:40.432Z,0
2019-03-28T02:36:06.592Z,0
2019-03-28T02:36:32.784Z,0
2019-03-28T02:36:59.048Z,0
2019-03-28T02:37:25.250Z,0
2019-03-28T02:37:51.405Z,0
2019-03-28T02:38:17.705Z,0
2019-03-28T02:38:43.962Z,0
2019-03-28T02:39:10.195Z,0
2019-03-28T02:39:36.432Z,0
2019-03-28T02:40:02.588Z,0
2019-03-28T02:40:28.772Z,0
2019-03-28T02:40:54.977Z,0
2019-03-28T02:41:21.192Z,0
2019-03-28T02:41:47.359Z,0
2019-03-28T02:42:13.550Z,0
2019-03-28T02:42:39.708Z,0
2019-03-28T02:43:05.864Z,0
2019-03-28T02:43:32.059Z,0
2019-03-28T02:43:58.253Z,0
2019-03-28T02:44:24.454Z,0
2019-03-28T02:44:50.661Z,0
2019-03-28T02:45:16.814Z,0
2019-03-28T02:45:42.975Z,0
2019-03-28T02:46:09.167Z,0
2019-03-28T02:46:35.399Z,0
2019-03-28T02:47:01.595Z,0
2019-03-28T02:47:27.796Z,0
2019-03-28T02:47:54.032Z,0
2019-03-28T02:48:20.306Z,0
2019-03-28T02:48:46.568Z,0
2019-03-28T02:49:12.775Z,0
2019-03-28T02:49:38.969Z,0
2019-03-28T02:50:05.171Z,0
2019-03-28T02:50:32.317Z,0
2019-03-28T02:50:58.915Z,0
2019-03-28T02:51:25.147Z,0
2019-03-28T02:51:51.404Z,0
2019-03-28T02:52:17.585Z,0
2019-03-28T02:52:43.748Z,0
2019-03-28T02:53:09.973Z,0
2019-03-28T02:53:36.179Z,0
2019-03-28T02:54:02.332Z,0
2019-03-28T02:54:28.537Z,0
2019-03-28T02:54:54.692Z,0
2019-03-28T02:55:20.890Z,0
2019-03-28T02:55:47.125Z,0
2019-03-28T02:56:13.402Z,0
2019-03-28T02:56:39.636Z,0
2019-03-28T02:57:05.867Z,0
2019-03-28T02:57:40.578Z,0
2019-03-28T02:58:01.194Z,0
2019-03-28T02:58:27.358Z,0
2019-03-28T02:58:53.532Z,0
2019-03-28T02:59:19.683Z,0
2019-03-28T02:59:45.879Z,0
2019-03-28T03:00:12.104Z,0
2019-03-28T03:00:38.339Z,0
2019-03-28T03:01:04.538Z,0
2019-03-28T03:01:30.731Z,0
2019-03-28T03:01:56.894Z,0
2019-03-28T03:02:23.087Z,0
2019-03-28T03:02:49.268Z,0
2019-03-28T03:03:15.462Z,0
2019-03-28T03:03:41.657Z,0
2019-03-28T03:04:07.829Z,0
2019-03-28T03:04:33.981Z,0
2019-03-28T03:05:00.155Z,0
2019-03-28T03:05:26.429Z,0
2019-03-28T03:05:52.624Z,0
2019-03-28T03:06:18.902Z,0
2019-03-28T03:06:45.062Z,0
2019-03-28T03:07:11.295Z,0
2019-03-28T03:07:37.536Z,0
2019-03-28T03:08:03.768Z,0
2019-03-28T03:08:30.007Z,0
2019-03-28T03:08:56.207Z,0
2019-03-28T03:09:22.372Z,0
2019-03-28T03:09:48.530Z,0
2019-03-28T03:10:14.685Z,0
2019-03-28T03:10:40.848Z,0
2019-03-28T03:11:07.158Z,0
2019-03-28T03:11:33.391Z,0
2019-03-28T03:12:01.254Z,0
2019-03-28T03:12:27.713Z,0
2019-03-28T03:12:54.076Z,0
2019-03-28T03:13:20.319Z,0
2019-03-28T03:13:46.527Z,0
2019-03-28T03:14:12.711Z,0
2019-03-28T03:14:38.911Z,0
2019-03-28T03:15:05.110Z,0
2019-03-28T03:15:31.276Z,0
2019-03-28T03:15:57.427Z,0
2019-03-28T03:16:23.659Z,0
2019-03-28T03:16:49.864Z,0
2019-03-28T03:17:16.189Z,0
2019-03-28T03:17:42.311Z,0
2019-03-28T03:18:08.484Z,0
2019-03-28T03:18:35.628Z,0
2019-03-28T03:19:01.818Z,0
2019-03-28T03:19:28.023Z,0
2019-03-28T03:19:54.241Z,0
2019-03-28T03:20:20.428Z,0
2019-03-28T03:20:46.580Z,0
2019-03-28T03:21:12.761Z,0
2019-03-28T03:21:39.030Z,0
2019-03-28T03:22:05.181Z,0
2019-03-28T03:22:31.323Z,0
2019-03-28T03:22:57.511Z,0
2019-03-28T03:23:23.764Z,0
2019-03-28T03:23:49.949Z,0
2019-03-28T03:24:16.094Z,0
2019-03-28T03:24:42.274Z,0
2019-03-28T03:25:08.465Z,0
2019-03-28T03:25:34.663Z,0
2019-03-28T03:26:00.845Z,0
2019-03-28T03:26:27.003Z,0
2019-03-28T03:26:53.207Z,0
2019-03-28T03:27:19.386Z,0
2019-03-28T03:27:57.454Z,0
2019-03-28T03:28:14.729Z,0
2019-03-28T03:28:40.944Z,0
2019-03-28T03:29:07.153Z,0
2019-03-28T03:29:33.353Z,0
2019-03-28T03:29:59.507Z,0
2019-03-28T03:30:25.651Z,0
2019-03-28T03:30:51.880Z,0
2019-03-28T03:31:21.100Z,0
2019-03-28T03:31:44.392Z,0
2019-03-28T03:32:10.625Z,0
2019-03-28T03:32:36.826Z,0
2019-03-28T03:33:03.132Z,0
2019-03-28T03:33:30.331Z,0
2019-03-28T03:33:56.492Z,0
2019-03-28T03:34:22.702Z,0
2019-03-28T03:34:49.401Z,0
2019-03-28T03:35:15.606Z,0
2019-03-28T03:35:41.811Z,0
2019-03-28T03:36:08.048Z,0
2019-03-28T03:36:34.247Z,0
2019-03-28T03:37:00.405Z,0
2019-03-28T03:37:26.635Z,0
2019-03-28T03:37:52.800Z,0
2019-03-28T03:38:19.007Z,0
2019-03-28T03:38:45.198Z,0
2019-03-28T03:39:11.356Z,0
2019-03-28T03:39:37.547Z,0
2019-03-28T03:40:03.743Z,0
2019-03-28T03:40:29.976Z,0
2019-03-28T03:40:56.152Z,0
2019-03-28T03:41:22.352Z,0
2019-03-28T03:41:48.581Z,0
2019-03-28T03:42:14.737Z,0
2019-03-28T03:42:40.940Z,0
2019-03-28T03:43:07.593Z,0
2019-03-28T03:43:34.032Z,0
2019-03-28T03:44:00.231Z,0
2019-03-28T03:44:26.871Z,0
2019-03-28T03:44:53.021Z,0
2019-03-28T03:45:19.964Z,0
2019-03-28T03:45:46.430Z,0
2019-03-28T03:46:12.669Z,0
2019-03-28T03:46:38.908Z,0
2019-03-28T03:47:05.066Z,0
2019-03-28T03:47:31.225Z,0
2019-03-28T03:47:57.380Z,0
2019-03-28T03:48:23.583Z,0
2019-03-28T03:48:49.779Z,0
2019-03-28T03:49:15.974Z,0
2019-03-28T03:49:42.164Z,0
2019-03-28T03:50:08.363Z,0
2019-03-28T03:50:34.558Z,0
2019-03-28T03:51:00.797Z,0
2019-03-28T03:51:26.958Z,0
2019-03-28T03:51:53.157Z,0
2019-03-28T03:52:19.320Z,0
2019-03-28T03:52:45.475Z,0
2019-03-28T03:53:12.628Z,0
2019-03-28T03:53:38.822Z,0
2019-03-28T03:54:05.026Z,0
2019-03-28T03:54:31.214Z,0
2019-03-28T03:54:57.414Z,0
2019-03-28T03:55:23.569Z,0
2019-03-28T03:55:49.735Z,0
2019-03-28T03:56:15.917Z,0
2019-03-28T03:56:42.085Z,0
2019-03-28T03:57:08.349Z,0
2019-03-28T03:57:34.513Z,0
2019-03-28T03:58:14.157Z,0
2019-03-28T03:58:29.900Z,0
2019-03-28T03:58:56.415Z,0
2019-03-28T03:59:22.754Z,0
2019-03-28T03:59:49.158Z,0
2019-03-28T04:00:15.586Z,0
2019-03-28T04:00:41.892Z,0
2019-03-28T04:01:08.315Z,0
2019-03-28T04:01:34.678Z,0
2019-03-28T04:02:00.861Z,0
2019-03-28T04:02:27.021Z,0
2019-03-28T04:02:53.218Z,0
2019-03-28T04:03:19.418Z,0
2019-03-28T04:03:45.582Z,0
2019-03-28T04:04:11.913Z,0
2019-03-28T04:04:38.145Z,0
2019-03-28T04:05:05.543Z,0
2019-03-28T04:05:31.689Z,0
2019-03-28T04:05:57.845Z,0
2019-03-28T04:06:24.259Z,0
2019-03-28T04:06:50.449Z,0
2019-03-28T04:07:16.653Z,0
2019-03-28T04:07:42.883Z,0
2019-03-28T04:08:09.072Z,0
2019-03-28T04:08:35.317Z,0
2019-03-28T04:09:01.474Z,0
2019-03-28T04:09:27.666Z,0
2019-03-28T04:09:53.877Z,0
2019-03-28T04:10:20.040Z,0
2019-03-28T04:10:46.201Z,0
2019-03-28T04:11:12.409Z,0
2019-03-28T04:11:38.603Z,0
2019-03-28T04:12:04.839Z,0
2019-03-28T04:12:31.073Z,0
2019-03-28T04:12:57.232Z,0
2019-03-28T04:13:23.480Z,0
2019-03-28T04:13:49.714Z,0
2019-03-28T04:14:15.949Z,0
2019-03-28T04:14:42.184Z,0
2019-03-28T04:15:08.461Z,0
2019-03-28T04:15:34.764Z,0
2019-03-28T04:16:00.967Z,0
2019-03-28T04:16:27.174Z,0
2019-03-28T04:16:53.469Z,0
2019-03-28T04:17:19.666Z,0
2019-03-28T04:17:45.828Z,0
2019-03-28T04:18:11.998Z,0
2019-03-28T04:18:38.425Z,0
2019-03-28T04:19:05.896Z,0
2019-03-28T04:19:32.420Z,0
2019-03-28T04:19:58.753Z,0
2019-03-28T04:20:25.284Z,0
2019-03-28T04:20:51.763Z,0
2019-03-28T04:21:18.080Z,0
2019-03-28T04:21:44.345Z,0
2019-03-28T04:22:10.549Z,0
2019-03-28T04:22:37.090Z,0
2019-03-28T04:23:03.970Z,0
2019-03-28T04:23:30.424Z,0
2019-03-28T04:23:56.757Z,0
2019-03-28T04:24:22.996Z,0
2019-03-28T04:24:49.229Z,0
2019-03-28T04:25:15.388Z,0
2019-03-28T04:25:41.583Z,0
2019-03-28T04:26:07.732Z,0
2019-03-28T04:26:33.938Z,0
2019-03-28T04:27:00.132Z,0
2019-03-28T04:27:26.554Z,0
2019-03-28T04:27:52.713Z,0
2019-03-28T04:28:31.167Z,0
2019-03-28T04:28:48.987Z,0
2019-03-28T04:29:15.172Z,0
2019-03-28T04:29:41.333Z,0
2019-03-28T04:30:07.533Z,0
2019-03-28T04:30:33.726Z,0
2019-03-28T04:30:59.896Z,0
2019-03-28T04:31:26.126Z,0
2019-03-28T04:31:52.288Z,0
2019-03-28T04:32:18.447Z,0
2019-03-28T04:32:44.680Z,0
2019-03-28T04:33:10.932Z,0
2019-03-28T04:33:37.062Z,0
2019-03-28T04:34:07.245Z,0
2019-03-28T04:34:30.507Z,0
2019-03-28T04:34:56.705Z,0
2019-03-28T04:35:22.972Z,0
2019-03-28T04:35:49.134Z,0
2019-03-28T04:36:15.363Z,0
2019-03-28T04:36:41.529Z,0
2019-03-28T04:37:07.760Z,0
2019-03-28T04:37:33.965Z,0
2019-03-28T04:38:00.157Z,0
2019-03-28T04:38:26.319Z,0
2019-03-28T04:38:52.473Z,0
2019-03-28T04:39:18.632Z,0
2019-03-28T04:39:44.794Z,0
2019-03-28T04:40:10.984Z,0
2019-03-28T04:40:37.228Z,0
2019-03-28T04:41:03.393Z,0
2019-03-28T04:41:29.660Z,0
2019-03-28T04:41:55.858Z,0
2019-03-28T04:42:22.091Z,0
2019-03-28T04:42:48.278Z,0
2019-03-28T04:43:14.440Z,0
2019-03-28T04:43:40.634Z,0
2019-03-28T04:44:07.782Z,0
2019-03-28T04:44:33.978Z,0
2019-03-28T04:45:00.267Z,0
2019-03-28T04:45:26.601Z,0
2019-03-28T04:45:52.763Z,0
2019-03-28T04:46:18.996Z,0
2019-03-28T04:46:45.362Z,0
2019-03-28T04:47:11.434Z,0
2019-03-28T04:47:37.628Z,0
2019-03-28T04:48:03.825Z,4
2019-03-28T04:48:30.023Z,4
2019-03-28T04:48:56.179Z,4
2019-03-28T04:49:22.389Z,4
2019-03-28T04:49:49.011Z,4
2019-03-28T04:50:15.724Z,0
2019-03-28T04:50:41.923Z,0
2019-03-28T04:51:08.087Z,4
2019-03-28T04:51:34.239Z,4
2019-03-28T04:52:00.396Z,4
2019-03-28T04:52:26.550Z,4
2019-03-28T04:52:53.147Z,4
2019-03-28T04:53:19.261Z,4
2019-03-28T04:53:45.455Z,4
2019-03-28T04:54:13.177Z,4
2019-03-28T04:54:39.784Z,8
2019-03-28T04:55:06.013Z,4
2019-03-28T04:55:32.215Z,4
2019-03-28T04:55:58.422Z,8
2019-03-28T04:56:24.610Z,8
2019-03-28T04:56:50.771Z,8
2019-03-28T04:57:16.963Z,8
2019-03-28T04:57:44.108Z,12
2019-03-28T04:58:11.151Z,8
2019-03-28T04:58:44.561Z,12
2019-03-28T04:59:06.479Z,12
2019-03-28T04:59:32.655Z,12
2019-03-28T04:59:58.812Z,16
2019-03-28T05:00:25.010Z,12
2019-03-28T05:00:51.215Z,16
2019-03-28T05:01:17.396Z,16
2019-03-28T05:01:43.595Z,16
2019-03-28T05:02:11.800Z,16
2019-03-28T05:02:37.965Z,20
2019-03-28T05:03:05.120Z,20
2019-03-28T05:03:31.321Z,20
2019-03-28T05:03:57.519Z,20
2019-03-28T05:04:24.667Z,28
2019-03-28T05:04:51.140Z,24
2019-03-28T05:05:17.296Z,28
2019-03-28T05:05:43.452Z,28
2019-03-28T05:06:09.647Z,32
2019-03-28T05:06:37.935Z,32
2019-03-28T05:07:03.035Z,36
2019-03-28T05:07:29.236Z,36
2019-03-28T05:07:55.392Z,40
2019-03-28T05:08:21.555Z,44
2019-03-28T05:08:47.715Z,48
2019-03-28T05:09:13.874Z,48
2019-03-28T05:09:40.947Z,48
2019-03-28T05:10:07.148Z,52
2019-03-28T05:10:33.361Z,56
2019-03-28T05:10:59.543Z,56
2019-03-28T05:11:25.703Z,56
2019-03-28T05:11:51.863Z,64
2019-03-28T05:12:18.030Z,64
2019-03-28T05:12:44.225Z,68
2019-03-28T05:13:10.380Z,72
2019-03-28T05:13:36.543Z,76
2019-03-28T05:14:02.702Z,80
2019-03-28T05:14:28.858Z,80
2019-03-28T05:14:55.020Z,84
2019-03-28T05:15:21.726Z,88
2019-03-28T05:15:47.963Z,92
2019-03-28T05:16:14.144Z,96
2019-03-28T05:16:40.307Z,100
2019-03-28T05:17:06.471Z,104
2019-03-28T05:17:32.624Z,108
2019-03-28T05:17:58.821Z,116
2019-03-28T05:18:24.987Z,116
2019-03-28T05:18:51.179Z,124
2019-03-28T05:19:17.338Z,132
2019-03-28T05:19:44.151Z,136
2019-03-28T05:20:13.021Z,140
2019-03-28T05:20:37.465Z,148
2019-03-28T05:21:03.616Z,152
2019-03-28T05:21:29.773Z,156
2019-03-28T05:21:56.418Z,164
2019-03-28T05:22:22.624Z,168
2019-03-28T05:22:48.801Z,176
2019-03-28T05:23:15.001Z,180
2019-03-28T05:23:41.187Z,184
2019-03-28T05:24:07.347Z,188
2019-03-28T05:24:34.488Z,196
2019-03-28T05:25:00.653Z,204
2019-03-28T05:25:26.810Z,208
2019-03-28T05:25:53.010Z,216
2019-03-28T05:26:19.207Z,216
2019-03-28T05:26:45.398Z,224
2019-03-28T05:27:11.559Z,228
2019-03-28T05:27:38.689Z,232
2019-03-28T05:28:04.850Z,236
2019-03-28T05:28:31.009Z,240
2019-03-28T05:28:59.454Z,248
2019-03-28T05:29:25.335Z,256
2019-03-28T05:29:52.215Z,264
2019-03-28T05:30:18.367Z,276
2019-03-28T05:30:44.531Z,284
2019-03-28T05:31:10.689Z,296
2019-03-28T05:31:36.857Z,300
2019-03-28T05:32:03.011Z,312
2019-03-28T05:32:29.210Z,316
2019-03-28T05:32:55.412Z,324
2019-03-28T05:33:21.640Z,332
2019-03-28T05:33:47.835Z,336
2019-03-28T05:34:14.000Z,348
2019-03-28T05:34:40.197Z,356
2019-03-28T05:35:06.350Z,364
2019-03-28T05:35:32.514Z,376
2019-03-28T05:35:58.706Z,384
2019-03-28T05:36:25.549Z,392
2019-03-28T05:36:52.171Z,396
2019-03-28T05:37:18.454Z,400
2019-03-28T05:37:44.607Z,412
2019-03-28T05:38:10.763Z,420
2019-03-28T05:38:36.924Z,432
2019-03-28T05:39:03.085Z,448
2019-03-28T05:39:30.045Z,464
2019-03-28T05:39:56.207Z,476
2019-03-28T05:40:22.872Z,488
2019-03-28T05:40:49.102Z,496
2019-03-28T05:41:17.369Z,508
2019-03-28T05:41:42.444Z,520
2019-03-28T05:42:08.606Z,528
2019-03-28T05:42:34.788Z,544
2019-03-28T05:43:00.949Z,560
2019-03-28T05:43:27.107Z,572
2019-03-28T05:43:54.256Z,596
2019-03-28T05:44:20.415Z,616
2019-03-28T05:44:46.580Z,636
2019-03-28T05:45:12.770Z,656
2019-03-28T05:45:38.966Z,672
2019-03-28T05:46:06.152Z,684
2019-03-28T05:46:32.308Z,696
2019-03-28T05:46:58.506Z,704
2019-03-28T05:47:25.651Z,716
2019-03-28T05:47:51.811Z,724
2019-03-28T05:48:18.036Z,740
2019-03-28T05:48:44.228Z,756
2019-03-28T05:49:10.426Z,776
2019-03-28T05:49:36.591Z,800
2019-03-28T05:50:02.754Z,832
2019-03-28T05:50:28.912Z,864
2019-03-28T05:50:55.067Z,896
2019-03-28T05:51:21.261Z,928
2019-03-28T05:51:47.424Z,964
2019-03-28T05:52:14.574Z,1004
2019-03-28T05:52:40.729Z,1040
2019-03-28T05:53:06.890Z,1080
2019-03-28T05:53:33.082Z,1120
2019-03-28T05:53:59.271Z,1156
2019-03-28T05:54:25.422Z,1184
2019-03-28T05:54:51.586Z,1216
2019-03-28T05:55:18.734Z,1240
2019-03-28T05:55:44.892Z,1264
2019-03-28T05:56:11.088Z,1280
2019-03-28T05:56:37.253Z,1296
2019-03-28T05:57:03.411Z,1308
2019-03-28T05:57:29.572Z,1316
2019-03-28T05:57:55.763Z,1324
2019-03-28T05:58:21.952Z,1332
2019-03-28T05:58:48.109Z,1332
2019-03-28T05:59:17.092Z,1336
2019-03-28T05:59:43.253Z,1340
2019-03-28T06:00:09.460Z,1344
2019-03-28T06:00:38.705Z,1356
2019-03-28T06:01:03.762Z,1372
2019-03-28T06:01:29.957Z,1400
2019-03-28T06:01:56.105Z,1428
2019-03-28T06:02:22.271Z,1468
2019-03-28T06:02:48.435Z,1508
2019-03-28T06:03:14.592Z,1564
2019-03-28T06:03:40.752Z,1616
2019-03-28T06:04:06.916Z,1676
2019-03-28T06:04:33.068Z,1744
2019-03-28T06:04:59.252Z,1804
2019-03-28T06:05:26.335Z,1868
2019-03-28T06:05:52.554Z,1936
2019-03-28T06:06:18.715Z,2004
2019-03-28T06:06:44.873Z,2068
2019-03-28T06:07:12.024Z,2136
2019-03-28T06:07:38.179Z,2200
2019-03-28T06:08:04.339Z,2256
2019-03-28T06:08:30.494Z,2316
2019-03-28T06:08:56.657Z,2364
2019-03-28T06:09:22.815Z,2408
2019-03-28T06:09:49.997Z,2452
2019-03-28T06:10:16.559Z,2476
2019-03-28T06:10:42.722Z,2496
2019-03-28T06:11:08.880Z,2504
2019-03-28T06:11:35.035Z,2508
2019-03-28T06:12:02.193Z,2512
2019-03-28T06:12:29.339Z,2520
2019-03-28T06:12:55.496Z,2532
2019-03-28T06:13:21.704Z,2556
2019-03-28T06:13:47.861Z,2588
2019-03-28T06:14:14.012Z,2632
2019-03-28T06:14:40.174Z,2680
2019-03-28T06:15:06.412Z,2732
2019-03-28T06:15:32.594Z,2788
2019-03-28T06:15:59.742Z,2840
2019-03-28T06:16:25.921Z,2888
2019-03-28T06:16:52.080Z,2928
2019-03-28T06:17:18.871Z,2968
2019-03-28T06:17:45.037Z,2996
2019-03-28T06:18:11.220Z,3024
2019-03-28T06:18:37.455Z,3044
2019-03-28T06:19:03.612Z,3068
2019-03-28T06:19:29.804Z,3096
2019-03-28T06:19:55.999Z,3124
2019-03-28T06:20:22.150Z,3156
2019-03-28T06:20:48.310Z,3200
2019-03-28T06:21:15.330Z,3256
2019-03-28T06:21:42.365Z,3316
2019-03-28T06:22:08.645Z,3384
2019-03-28T06:22:34.804Z,3464